Time;durP1;ratioP1;P1;durP2;ratioP2;P2;SDS_P1;SDS_P2;PMS_P1;PMS_P2;Temp;Humidity;BMP_temperature;BMP_pressure;BME280_temperature;BME280_humidity;BME280_pressure;Samples;Min_cycle;Max_cycle;Signal;HPM_P1;HPM_P2
2023/05/21 00:01:47;;;;;;;12.13;4.03;;;;;;;40.55;38.10;101066.19;5054465;28;20423;-89
2023/05/21 00:04:14;;;;;;;15.10;4.40;;;;;;;40.40;38.37;101070.16;5054424;28;20426;-90
2023/05/21 00:06:40;;;;;;;21.03;6.20;;;;;;;40.60;37.85;101073.38;5055056;28;20470;-86
2023/05/21 00:09:06;;;;;;;17.30;4.10;;;;;;;40.64;37.89;101071.59;5041109;28;20504;-87
2023/05/21 00:11:32;;;;;;;15.80;4.57;;;;;;;40.72;37.63;101070.81;5053922;28;20422;-86
2023/05/21 00:13:58;;;;;;;17.63;4.97;;;;;;;40.71;37.71;101067.31;5040804;28;20482;-87
2023/05/21 00:16:24;;;;;;;19.17;8.20;;;;;;;40.81;37.66;101068.88;5053854;28;20485;-87
2023/05/21 00:18:53;;;;;;;17.77;4.60;;;;;;;40.71;37.65;101056.41;5053943;28;20176;-89
2023/05/21 00:21:24;;;;;;;29.47;5.10;;;;;;;40.77;37.91;101041.53;5053896;28;20422;-88
2023/05/21 00:23:53;;;;;;;22.43;5.87;;;;;;;40.76;37.69;101039.13;5053885;28;20500;-89
2023/05/21 00:26:20;;;;;;;12.90;6.67;;;;;;;40.74;38.03;101035.94;5053836;28;20458;-88
2023/05/21 00:28:46;;;;;;;20.10;5.37;;;;;;;40.78;37.67;101034.19;5055182;28;20794;-86
2023/05/21 00:31:12;;;;;;;18.47;4.70;;;;;;;40.77;38.02;101030.66;5053676;28;20445;-86
2023/05/21 00:33:38;;;;;;;16.30;6.97;;;;;;;40.77;37.55;101030.66;5053654;28;20514;-87
2023/05/21 00:36:04;;;;;;;19.23;6.77;;;;;;;40.79;37.52;101031.13;5053591;28;20423;-86
2023/05/21 00:38:31;;;;;;;16.37;6.00;;;;;;;40.65;37.56;101027.78;5053780;28;20180;-86
2023/05/21 00:41:06;;;;;;;18.77;6.17;;;;;;;40.59;37.74;101022.84;5053279;28;20433;-87
2023/05/21 00:43:32;;;;;;;12.03;4.60;;;;;;;40.72;37.28;101030.81;5053319;28;20855;-86
2023/05/21 00:45:58;;;;;;;20.70;4.60;;;;;;;40.54;37.56;101018.34;5053336;28;20426;-87
2023/05/21 00:48:25;;;;;;;11.23;4.20;;;;;;;40.32;38.19;101024.72;5052807;28;20442;-87
2023/05/21 00:50:51;;;;;;;18.27;5.10;;;;;;;40.49;37.45;101024.75;5052273;28;20426;-86
2023/05/21 00:53:18;;;;;;;18.93;4.80;;;;;;;40.35;37.74;101017.84;5053433;28;20439;-86
2023/05/21 00:55:45;;;;;;;11.73;4.30;;;;;;;40.24;37.59;101014.63;5053463;28;20414;-87
2023/05/21 00:58:11;;;;;;;14.80;3.97;;;;;;;40.33;36.87;101010.03;5053435;28;20419;-86
2023/05/21 01:00:39;;;;;;;20.60;6.30;;;;;;;40.39;37.12;101016.06;5053043;28;20442;-87
2023/05/21 01:03:05;;;;;;;21.90;5.40;;;;;;;40.39;37.60;101021.50;5053509;28;20938;-87
2023/05/21 01:05:31;;;;;;;21.43;5.40;;;;;;;40.38;37.71;101030.78;5053059;28;20518;-88
2023/05/21 01:07:58;;;;;;;18.07;8.27;;;;;;;40.43;37.82;101019.75;5042266;28;20471;-86
2023/05/21 01:10:25;;;;;;;12.60;5.83;;;;;;;40.55;37.71;101011.78;5050603;28;20423;-87
2023/05/21 01:12:54;;;;;;;20.77;6.90;;;;;;;40.51;37.71;101017.06;5052947;28;20438;-86
2023/05/21 01:15:20;;;;;;;14.87;3.80;;;;;;;40.61;37.46;101007.00;5052926;28;20799;-86
2023/05/21 01:17:47;;;;;;;14.70;4.67;;;;;;;40.55;36.73;101012.59;5052976;28;20427;-87
2023/05/21 01:20:18;;;;;;;15.90;5.57;;;;;;;40.58;36.26;101016.59;5052722;28;20810;-87
2023/05/21 01:22:52;;;;;;;15.07;4.70;;;;;;;40.48;36.38;101014.19;5052975;28;20426;-85
2023/05/21 01:25:19;;;;;;;7.97;3.47;;;;;;;40.64;35.70;101014.50;5036962;28;20427;-87
2023/05/21 01:27:45;;;;;;;13.30;4.50;;;;;;;40.53;36.08;101016.75;5046701;28;20470;-86
2023/05/21 01:30:12;;;;;;;15.50;3.93;;;;;;;40.66;35.90;101007.63;5052713;28;20419;-86
2023/05/21 01:32:48;;;;;;;20.53;5.03;;;;;;;40.70;35.57;101011.31;5052581;28;20266;-87
2023/05/21 01:35:25;;;;;;;8.87;3.97;;;;;;;40.66;36.59;101010.34;5052578;28;20438;-86
2023/05/21 01:38:17;;;;;;;14.60;5.10;;;;;;;40.70;37.09;101007.75;5052410;28;20431;-87
2023/05/21 01:41:02;;;;;;;20.37;4.67;;;;;;;40.59;37.25;100991.00;5042002;28;20438;-87
2023/05/21 01:43:35;;;;;;;9.43;4.67;;;;;;;40.58;37.57;101004.91;5042906;28;20458;-86
2023/05/21 01:46:01;;;;;;;14.37;5.57;;;;;;;40.54;37.73;101005.56;5052342;28;20415;-87
2023/05/21 01:48:28;;;;;;;11.00;5.00;;;;;;;40.56;37.66;101002.50;5052282;28;20423;-86
2023/05/21 01:50:59;;;;;;;11.87;4.90;;;;;;;40.49;37.66;100996.75;5052822;28;20438;-87
2023/05/21 01:53:25;;;;;;;7.97;4.20;;;;;;;40.44;38.00;100999.59;5053782;28;20426;-87
2023/05/21 01:55:53;;;;;;;16.20;5.20;;;;;;;40.41;37.77;100992.09;5051969;28;20829;-85
2023/05/21 01:58:20;;;;;;;20.37;5.30;;;;;;;40.46;38.09;101010.97;5052485;28;20506;-89
2023/05/21 02:00:46;;;;;;;11.50;5.33;;;;;;;40.36;38.00;101001.22;5051866;28;20407;-89
2023/05/21 02:03:16;;;;;;;22.20;6.07;;;;;;;40.33;38.13;101001.03;5051852;28;20501;-90
2023/05/21 02:05:42;;;;;;;15.83;5.90;;;;;;;40.36;37.78;101008.56;5051967;28;20438;-89
2023/05/21 02:08:08;;;;;;;15.47;5.53;;;;;;;40.32;38.03;101005.69;5050481;28;20449;-89
2023/05/21 02:10:35;;;;;;;11.90;6.07;;;;;;;40.28;38.15;100997.38;5052477;28;20931;-90
2023/05/21 02:13:01;;;;;;;12.43;6.43;;;;;;;40.32;38.14;100994.00;5051972;28;20533;-89
2023/05/21 02:15:27;;;;;;;12.10;5.10;;;;;;;40.17;38.29;100990.66;5051901;28;20406;-89
2023/05/21 02:17:54;;;;;;;19.23;6.57;;;;;;;40.14;38.43;100996.72;5053156;28;20474;-88
2023/05/21 02:20:21;;;;;;;9.67;5.37;;;;;;;40.23;38.24;100996.75;5051829;28;20458;-89
2023/05/21 02:22:48;;;;;;;9.83;5.20;;;;;;;40.16;37.96;101001.84;5051965;28;20538;-86
2023/05/21 02:25:17;;;;;;;14.23;5.77;;;;;;;40.19;38.59;100999.28;5051656;28;20493;-88
2023/05/21 02:27:43;;;;;;;16.47;5.77;;;;;;;40.19;38.31;100995.78;5051600;28;21258;-86
2023/05/21 02:30:14;;;;;;;15.80;4.87;;;;;;;40.06;38.40;100999.44;5038698;28;20418;-87
2023/05/21 02:32:41;;;;;;;12.53;5.00;;;;;;;40.14;38.37;101001.34;5051507;28;20848;-87
2023/05/21 02:35:10;;;;;;;11.80;5.37;;;;;;;40.01;38.52;100986.75;5048378;28;20423;-86
2023/05/21 02:37:36;;;;;;;15.20;5.07;;;;;;;40.14;38.49;101004.88;5051100;28;20418;-86
2023/05/21 02:40:06;;;;;;;13.30;5.43;;;;;;;40.12;38.08;101006.31;5051696;28;20483;-87
2023/05/21 02:42:33;;;;;;;9.40;5.20;;;;;;;40.17;38.46;101006.16;5050953;28;21014;-87
2023/05/21 02:44:59;;;;;;;16.20;6.87;;;;;;;40.01;38.24;101008.50;5051264;28;20489;-88
2023/05/21 02:47:25;;;;;;;13.20;5.90;;;;;;;40.04;38.52;101013.34;5051240;28;20459;-87
2023/05/21 02:49:52;;;;;;;11.17;8.47;;;;;;;40.07;38.42;101011.91;5051241;28;20422;-86
2023/05/21 02:52:21;;;;;;;12.83;7.00;;;;;;;39.89;38.34;100994.75;5051416;28;20796;-87
2023/05/21 02:54:47;;;;;;;17.37;6.20;;;;;;;40.05;38.30;101008.72;5051686;28;20429;-87
2023/05/21 02:57:13;;;;;;;10.97;6.30;;;;;;;39.93;38.56;101001.16;5050887;28;20926;-87
2023/05/21 02:59:39;;;;;;;12.27;6.20;;;;;;;39.99;38.21;100999.88;5051027;28;20522;-88
2023/05/21 03:02:06;;;;;;;9.53;6.30;;;;;;;40.06;38.11;101008.38;5050594;28;20434;-87
2023/05/21 03:04:37;;;;;;;11.27;5.80;;;;;;;40.10;37.98;101014.78;5050880;28;20935;-87
2023/05/21 03:07:08;;;;;;;13.37;6.20;;;;;;;40.02;38.09;101005.50;5048004;28;20463;-87
2023/05/21 03:09:34;;;;;;;10.80;5.90;;;;;;;39.99;38.04;101008.81;5043395;28;20426;-88
2023/05/21 03:12:00;;;;;;;16.93;7.17;;;;;;;40.05;38.35;101011.44;5051652;28;20427;-87
2023/05/21 03:14:27;;;;;;;17.43;7.33;;;;;;;39.90;38.11;101008.03;5054873;28;20525;-87
2023/05/21 03:16:53;;;;;;;12.93;6.40;;;;;;;39.96;38.28;101001.31;5055230;28;20180;-87
2023/05/21 03:19:20;;;;;;;10.87;6.70;;;;;;;40.05;38.05;101006.78;5055195;28;20790;-87
2023/05/21 03:21:47;;;;;;;14.20;6.70;;;;;;;40.02;38.42;101007.38;5055265;28;20442;-87
2023/05/21 03:24:14;;;;;;;16.87;8.30;;;;;;;39.99;37.80;101016.19;5055363;28;20445;-87
2023/05/21 03:26:39;;;;;;;14.37;8.67;;;;;;;39.92;37.95;101010.41;5054708;28;20462;-87
2023/05/21 03:29:05;;;;;;;18.80;9.20;;;;;;;39.90;38.26;101009.91;5054808;28;20430;-87
2023/05/21 03:31:31;;;;;;;12.43;7.90;;;;;;;39.90;38.08;101013.47;5054571;28;20203;-86
2023/05/21 03:33:57;;;;;;;14.43;9.07;;;;;;;39.92;38.06;101013.94;5054905;28;20819;-87
2023/05/21 03:36:23;;;;;;;14.73;8.23;;;;;;;39.84;37.98;101020.16;5054664;28;20435;-87
2023/05/21 03:38:49;;;;;;;19.13;8.10;;;;;;;39.92;37.90;101021.28;5054750;28;20449;-87
2023/05/21 03:41:15;;;;;;;17.53;8.30;;;;;;;39.94;38.33;101027.97;5054691;28;20608;-87
2023/05/21 03:43:41;;;;;;;22.60;9.70;;;;;;;39.94;37.67;101024.47;5054590;28;20227;-88
2023/05/21 03:46:07;;;;;;;14.23;9.30;;;;;;;39.90;37.72;101024.31;5054554;28;20985;-87
2023/05/21 03:48:33;;;;;;;13.90;8.83;;;;;;;39.90;37.37;101032.47;5054848;28;20419;-87
2023/05/21 03:50:59;;;;;;;15.73;9.63;;;;;;;39.81;37.89;101037.06;5054324;28;20208;-85
2023/05/21 03:53:25;;;;;;;22.43;8.57;;;;;;;39.78;37.90;101029.56;5054775;28;20230;-87
2023/05/21 03:55:53;;;;;;;15.30;8.43;;;;;;;39.83;37.75;101031.31;5054580;28;20172;-89
2023/05/21 03:58:23;;;;;;;17.40;9.20;;;;;;;39.90;37.49;101034.34;5054540;28;20551;-89
2023/05/21 04:00:49;;;;;;;12.63;7.57;;;;;;;39.96;37.62;101028.50;5054611;28;20419;-88
2023/05/21 04:03:16;;;;;;;17.10;9.90;;;;;;;39.91;37.77;101035.97;5056847;28;20478;-89
2023/05/21 04:05:42;;;;;;;13.23;8.03;;;;;;;39.95;37.58;101036.94;5055427;28;20557;-89
2023/05/21 04:08:09;;;;;;;15.13;8.87;;;;;;;39.82;38.03;101044.09;5041985;28;20455;-89
2023/05/21 04:10:35;;;;;;;13.23;7.63;;;;;;;39.51;38.09;101030.53;5053051;28;20537;-89
2023/05/21 04:13:01;;;;;;;16.30;7.80;;;;;;;39.74;37.68;101045.66;5054478;28;20517;-89
2023/05/21 04:15:27;;;;;;;16.40;9.37;;;;;;;39.87;37.53;101035.81;5054105;28;20888;-89
2023/05/21 04:17:53;;;;;;;12.10;8.50;;;;;;;39.81;37.77;101042.50;5054322;28;20441;-89
2023/05/21 04:20:20;;;;;;;19.63;10.87;;;;;;;39.87;37.55;101051.31;5054066;28;20422;-87
2023/05/21 04:22:46;;;;;;;13.67;10.70;;;;;;;39.83;37.35;101040.25;5053736;28;20477;-87
2023/05/21 04:25:12;;;;;;;22.93;9.67;;;;;;;39.90;37.57;101050.66;5053941;28;20410;-87
2023/05/21 04:27:38;;;;;;;15.30;9.97;;;;;;;39.92;37.28;101051.16;5053852;28;20458;-88
2023/05/21 04:30:05;;;;;;;15.30;9.90;;;;;;;39.94;37.50;101043.47;5053472;28;20415;-86
2023/05/21 04:32:33;;;;;;;21.60;10.47;;;;;;;39.85;37.34;101032.63;5052648;28;20469;-87
2023/05/21 04:34:59;;;;;;;18.03;10.77;;;;;;;39.83;37.46;101029.38;5053977;28;20783;-87
2023/05/21 04:37:30;;;;;;;18.90;12.13;;;;;;;39.76;37.36;101027.13;5053926;28;20415;-88
2023/05/21 04:40:00;;;;;;;20.10;11.30;;;;;;;39.79;37.49;101030.34;5041158;28;20430;-87
2023/05/21 04:42:26;;;;;;;21.80;11.57;;;;;;;39.83;37.24;101020.44;5053471;28;21001;-88
2023/05/21 04:44:54;;;;;;;18.80;10.77;;;;;;;39.80;37.29;101024.59;5053593;28;20421;-88
2023/05/21 04:47:20;;;;;;;19.60;10.57;;;;;;;39.67;37.89;101025.53;5053595;28;20461;-87
2023/05/21 04:49:46;;;;;;;19.60;9.87;;;;;;;39.60;37.90;101030.59;5053469;28;20422;-87
2023/05/21 04:52:12;;;;;;;21.07;10.00;;;;;;;39.71;37.78;101024.56;5053105;28;20430;-87
2023/05/21 04:54:40;;;;;;;18.50;11.23;;;;;;;39.71;37.56;101035.41;5056008;28;20204;-88
2023/05/21 04:57:07;;;;;;;24.20;9.77;;;;;;;39.65;37.71;101027.72;5057597;28;20434;-87
2023/05/21 04:59:33;;;;;;;16.80;10.60;;;;;;;39.58;38.04;101040.94;5053360;28;20548;-87
2023/05/21 05:01:59;;;;;;;16.33;9.40;;;;;;;39.65;38.07;101028.53;5053073;28;20454;-87
2023/05/21 05:04:25;;;;;;;19.73;10.97;;;;;;;39.59;38.12;101027.03;5053697;28;20442;-87
2023/05/21 05:06:51;;;;;;;20.50;9.70;;;;;;;39.49;38.15;101030.06;5055632;28;20457;-87
2023/05/21 05:09:20;;;;;;;20.33;9.73;;;;;;;39.43;38.12;101037.53;5041511;28;20414;-88
2023/05/21 05:11:46;;;;;;;18.00;11.23;;;;;;;39.55;37.73;101049.72;5053148;28;20476;-87
2023/05/21 05:14:12;;;;;;;16.43;10.87;;;;;;;39.49;37.66;101044.44;5054529;28;20846;-86
2023/05/21 05:16:38;;;;;;;18.37;10.20;;;;;;;39.42;37.78;101041.38;5052315;28;20410;-89
2023/05/21 05:19:04;;;;;;;14.80;10.47;;;;;;;39.42;37.91;101051.44;5052807;28;20426;-89
2023/05/21 05:21:30;;;;;;;18.50;12.77;;;;;;;39.40;38.15;101054.44;5051823;28;20200;-90
2023/05/21 05:23:56;;;;;;;16.93;9.13;;;;;;;39.30;37.75;101043.06;5053218;28;20453;-88
2023/05/21 05:26:22;;;;;;;14.33;10.30;;;;;;;39.51;37.55;101049.53;5052867;28;20447;-89
2023/05/21 05:28:48;;;;;;;18.07;10.33;;;;;;;39.57;37.67;101051.00;5052977;28;20423;-89
2023/05/21 05:31:14;;;;;;;19.80;11.47;;;;;;;39.57;37.45;101053.72;5052589;28;20437;-88
2023/05/21 05:33:40;;;;;;;21.27;11.13;;;;;;;39.57;37.70;101063.78;5052881;28;20421;-87
2023/05/21 05:36:06;;;;;;;17.73;10.30;;;;;;;39.59;37.93;101061.53;5052108;28;20430;-87
2023/05/21 05:38:33;;;;;;;18.03;10.63;;;;;;;39.56;38.00;101062.19;5052672;28;20414;-88
2023/05/21 05:40:59;;;;;;;20.63;11.37;;;;;;;39.51;37.98;101065.81;5052279;28;20938;-88
2023/05/21 05:43:25;;;;;;;17.47;10.63;;;;;;;39.52;37.77;101064.72;5052371;28;20475;-87
2023/05/21 05:45:51;;;;;;;16.10;10.13;;;;;;;39.59;37.81;101065.06;5052104;28;20419;-85
2023/05/21 05:48:18;;;;;;;21.90;11.63;;;;;;;39.62;37.76;101063.69;5052459;28;20461;-87
2023/05/21 05:50:45;;;;;;;25.77;12.60;;;;;;;39.72;37.56;101080.50;5051809;28;20468;-87
2023/05/21 05:53:12;;;;;;;18.40;12.33;;;;;;;39.70;37.46;101076.47;5052468;28;20418;-87
2023/05/21 05:55:39;;;;;;;22.23;13.17;;;;;;;39.61;37.57;101079.16;5052073;28;20496;-87
2023/05/21 05:58:05;;;;;;;15.87;10.70;;;;;;;39.64;37.41;101092.09;5046689;28;20419;-86
2023/05/21 06:00:31;;;;;;;27.00;12.67;;;;;;;39.70;37.42;101100.91;5043283;28;20438;-87
2023/05/21 06:02:57;;;;;;;21.87;13.60;;;;;;;39.70;37.35;101111.78;5045197;28;20427;-86
2023/05/21 06:05:23;;;;;;;20.40;14.77;;;;;;;39.74;37.40;101119.00;5046907;28;20496;-87
2023/05/21 06:07:49;;;;;;;19.23;10.47;;;;;;;39.78;37.38;101126.50;5036810;28;20458;-87
2023/05/21 06:10:15;;;;;;;14.63;9.23;;;;;;;39.75;37.48;101125.22;5047695;28;20965;-88
2023/05/21 06:12:41;;;;;;;15.90;9.20;;;;;;;39.63;37.33;101123.09;5050797;28;20431;-88
2023/05/21 06:15:07;;;;;;;16.67;10.60;;;;;;;39.75;37.39;101126.03;5050337;28;20427;-88
2023/05/21 06:17:33;;;;;;;18.60;9.60;;;;;;;39.66;37.48;101127.91;5040750;28;20426;-87
2023/05/21 06:19:59;;;;;;;19.53;9.53;;;;;;;39.73;37.75;101133.69;5041395;28;20410;-88
2023/05/21 06:22:25;;;;;;;13.83;8.53;;;;;;;39.71;37.39;101144.03;5041258;28;20507;-88
2023/05/21 06:24:51;;;;;;;16.77;12.80;;;;;;;39.69;37.63;101142.75;5063262;28;20513;-88
2023/05/21 06:27:36;;;;;;;16.70;9.60;;;;;;;39.78;36.98;101146.34;5060900;28;20888;-89
2023/05/21 06:30:02;;;;;;;19.03;11.90;;;;;;;39.79;37.31;101149.84;5051504;28;20421;-89
2023/05/21 06:32:28;;;;;;;15.30;9.00;;;;;;;39.74;37.21;101148.88;5051348;28;20488;-89
2023/05/21 06:35:01;;;;;;;13.37;10.17;;;;;;;39.63;37.35;101161.09;5054362;28;20921;-89
2023/05/21 06:37:27;;;;;;;14.37;8.90;;;;;;;39.67;37.37;101162.09;5058176;28;20176;-87
2023/05/21 06:39:53;;;;;;;25.47;10.50;;;;;;;39.77;37.21;101161.00;5051541;28;20422;-89
2023/05/21 06:42:19;;;;;;;17.40;11.07;;;;;;;39.66;37.53;101160.50;5051186;28;20466;-90
2023/05/21 06:44:45;;;;;;;18.80;10.17;;;;;;;39.66;37.24;101165.13;5053078;28;20411;-89
2023/05/21 06:47:11;;;;;;;16.60;9.27;;;;;;;39.78;37.08;101168.06;5056903;28;20454;-84
2023/05/21 06:49:37;;;;;;;12.40;8.17;;;;;;;39.80;37.10;101173.19;5045264;28;20684;-90
2023/05/21 06:52:03;;;;;;;14.50;7.30;;;;;;;39.81;37.15;101188.34;5037124;28;20800;-90
2023/05/21 06:54:29;;;;;;;15.70;8.10;;;;;;;39.79;37.20;101177.00;5038445;28;20965;-90
2023/05/21 06:56:55;;;;;;;19.23;7.20;;;;;;;39.83;36.83;101176.06;5049008;28;20410;-85
2023/05/21 06:59:21;;;;;;;11.40;7.30;;;;;;;39.81;36.91;101172.88;5050431;28;20445;-86
2023/05/21 07:01:46;;;;;;;13.73;7.80;;;;;;;39.92;37.04;101162.53;5040764;28;21029;-85
2023/05/21 07:04:12;;;;;;;18.40;10.80;;;;;;;39.97;37.25;101170.56;5050243;28;20172;-87
2023/05/21 07:06:38;;;;;;;15.57;9.83;;;;;;;39.99;36.79;101174.53;5050935;28;20206;-86
2023/05/21 07:09:04;;;;;;;21.70;7.27;;;;;;;40.02;36.58;101173.09;5037525;28;20208;-86
2023/05/21 07:11:31;;;;;;;18.73;9.27;;;;;;;39.85;37.04;101162.19;5050583;28;20419;-87
2023/05/21 07:14:02;;;;;;;18.00;9.53;;;;;;;39.95;36.86;101161.91;5039249;28;20454;-86
2023/05/21 07:16:28;;;;;;;20.33;9.93;;;;;;;39.97;36.51;101175.97;5058998;28;20415;-87
2023/05/21 07:18:54;;;;;;;16.63;10.60;;;;;;;39.99;36.59;101173.75;5051466;28;20584;-86
2023/05/21 07:21:20;;;;;;;25.00;11.73;;;;;;;40.04;36.52;101170.94;5048060;28;20957;-86
2023/05/21 07:23:46;;;;;;;11.47;7.30;;;;;;;39.99;36.79;101169.13;5049624;28;20453;-86
2023/05/21 07:26:13;;;;;;;16.30;8.10;;;;;;;40.00;36.31;101187.00;5050072;28;20418;-86
2023/05/21 07:28:40;;;;;;;22.60;6.90;;;;;;;39.92;36.24;101179.63;5050426;28;20196;-86
2023/05/21 07:31:07;;;;;;;12.50;7.40;;;;;;;40.02;36.54;101189.41;5050777;28;20426;-89
2023/05/21 07:33:33;;;;;;;19.80;8.07;;;;;;;40.01;36.19;101199.47;5051968;28;20915;-87
2023/05/21 07:35:59;;;;;;;12.37;6.93;;;;;;;39.97;36.60;101208.59;5050260;28;20443;-85
2023/05/21 07:38:25;;;;;;;16.27;9.27;;;;;;;40.06;36.23;101212.16;5037381;28;20419;-87
2023/05/21 07:40:51;;;;;;;17.60;10.10;;;;;;;40.08;36.20;101214.56;5048746;28;21086;-87
2023/05/21 07:43:17;;;;;;;16.03;7.87;;;;;;;40.04;36.15;101217.13;5046522;28;20422;-87
2023/05/21 07:45:43;;;;;;;17.60;9.13;;;;;;;40.12;36.62;101226.41;5048022;28;20427;-86
2023/05/21 07:48:10;;;;;;;14.60;7.47;;;;;;;40.04;36.36;101219.84;5049295;28;20588;-84
2023/05/21 07:50:36;;;;;;;14.50;8.63;;;;;;;40.06;36.28;101217.59;5049383;28;20473;-86
2023/05/21 07:53:02;;;;;;;14.47;9.40;;;;;;;40.05;36.23;101218.72;5049240;28;20407;-83
2023/05/21 07:55:28;;;;;;;19.53;8.57;;;;;;;40.16;35.91;101224.69;5048723;28;20496;-84
2023/05/21 07:57:55;;;;;;;17.47;9.17;;;;;;;40.18;35.93;101214.28;5048808;28;20962;-81
2023/05/21 08:00:23;;;;;;;18.80;8.73;;;;;;;40.15;36.03;101221.16;5053251;28;20200;-86
2023/05/21 08:02:49;;;;;;;18.43;9.17;;;;;;;40.19;35.78;101221.31;5052652;28;20422;-88
2023/05/21 08:05:18;;;;;;;15.70;8.90;;;;;;;40.23;35.79;101216.88;5052150;28;20581;-88
2023/05/21 08:07:45;;;;;;;13.30;8.77;;;;;;;40.24;35.93;101202.97;5043644;28;20828;-88
2023/05/21 08:10:11;;;;;;;21.87;10.50;;;;;;;40.37;36.03;101212.13;5048355;28;20502;-86
2023/05/21 08:12:36;;;;;;;21.20;10.70;;;;;;;40.33;36.45;101199.47;5053765;28;20501;-86
2023/05/21 08:15:03;;;;;;;13.17;9.93;;;;;;;40.27;36.06;101196.13;5053499;28;20180;-86
2023/05/21 08:17:28;;;;;;;14.20;8.80;;;;;;;40.33;35.29;101191.31;5053872;28;20321;-86
2023/05/21 08:19:54;;;;;;;15.23;8.30;;;;;;;40.40;35.79;101199.84;5054905;28;20985;-86
2023/05/21 08:22:21;;;;;;;13.67;7.63;;;;;;;40.41;35.84;101204.94;5053683;28;20446;-86
2023/05/21 08:24:47;;;;;;;17.90;8.80;;;;;;;40.10;36.02;101191.41;5053459;28;20488;-86
2023/05/21 08:27:15;;;;;;;12.57;8.50;;;;;;;40.39;36.03;101218.06;5061563;28;20537;-87
2023/05/21 08:29:41;;;;;;;13.73;7.17;;;;;;;40.14;35.77;101213.31;5049983;28;20240;-86
2023/05/21 08:32:08;;;;;;;17.47;6.87;;;;;;;40.34;35.74;101231.78;5053477;28;20939;-88
2023/05/21 08:34:35;;;;;;;11.30;7.40;;;;;;;40.44;35.18;101225.25;5049454;28;21111;-88
2023/05/21 08:37:01;;;;;;;13.30;6.17;;;;;;;40.35;35.21;101217.09;5062645;28;20915;-90
2023/05/21 08:39:26;;;;;;;15.50;7.43;;;;;;;40.46;35.09;101226.56;5041099;28;20421;-89
2023/05/21 08:42:01;;;;;;;12.37;7.93;;;;;;;40.47;35.07;101227.34;5052980;28;20477;-88
2023/05/21 08:44:32;;;;;;;14.63;7.00;;;;;;;40.51;35.17;101229.13;5047979;28;20501;-89
2023/05/21 08:46:59;;;;;;;22.73;8.33;;;;;;;40.44;34.68;101222.53;5048396;28;20447;-91
2023/05/21 08:49:30;;;;;;;11.30;6.30;;;;;;;40.57;34.82;101243.41;5053879;28;20792;-89
2023/05/21 08:51:57;;;;;;;11.13;5.20;;;;;;;40.52;34.45;101229.97;5049586;28;20918;-88
2023/05/21 08:54:23;;;;;;;10.57;7.53;;;;;;;40.59;34.34;101234.94;5053945;28;20993;-90
2023/05/21 08:56:49;;;;;;;12.77;6.10;;;;;;;40.60;34.16;101242.78;5051893;28;20493;-88
2023/05/21 08:59:18;;;;;;;15.70;6.60;;;;;;;40.62;34.07;101239.72;5053182;28;20418;-90
2023/05/21 09:01:45;;;;;;;12.97;6.30;;;;;;;40.50;34.77;101238.41;5040950;28;20952;-92
2023/05/21 09:04:15;;;;;;;12.47;7.17;;;;;;;40.63;34.64;101246.78;5050339;28;20414;-89
2023/05/21 09:06:41;;;;;;;16.40;8.67;;;;;;;40.68;34.27;101249.34;5052743;28;20527;-88
2023/05/21 09:09:36;;;;;;;15.20;9.20;;;;;;;40.70;34.89;101260.69;5039660;28;20468;-88
2023/05/21 09:12:03;;;;;;;12.13;6.80;;;;;;;40.72;34.36;101240.25;5052112;28;20426;-90
2023/05/21 09:14:29;;;;;;;12.93;6.20;;;;;;;40.76;34.35;101251.28;5048914;28;20850;-84
2023/05/21 09:16:55;;;;;;;16.47;7.30;;;;;;;40.81;34.45;101267.44;5062698;28;20411;-89
2023/05/21 09:19:21;;;;;;;12.80;7.20;;;;;;;40.87;34.72;101266.19;5053102;28;20964;-88
2023/05/21 09:21:51;;;;;;;17.23;8.37;;;;;;;40.81;34.26;101270.97;5058603;28;20421;-85
2023/05/21 09:24:20;;;;;;;13.50;7.37;;;;;;;40.73;34.58;101263.59;5052947;28;20484;-90
2023/05/21 09:26:46;;;;;;;11.73;6.70;;;;;;;40.71;34.92;101254.97;5052435;28;20461;-89
2023/05/21 09:29:12;;;;;;;12.97;7.17;;;;;;;40.85;35.35;101264.91;5052586;28;20418;-88
2023/05/21 09:31:43;;;;;;;14.47;7.17;;;;;;;40.90;34.77;101256.59;5060720;28;20436;-91
2023/05/21 09:34:10;;;;;;;13.03;5.87;;;;;;;40.80;34.97;101253.06;5059322;28;20970;-91
2023/05/21 09:36:37;;;;;;;13.50;6.07;;;;;;;40.88;35.10;101265.06;5053793;28;20415;-90
2023/05/21 09:39:03;;;;;;;15.60;6.97;;;;;;;40.87;34.89;101274.34;5054004;28;20911;-90
2023/05/21 09:41:34;;;;;;;18.77;8.43;;;;;;;40.93;34.91;101267.66;5052774;28;20474;-90
2023/05/21 09:44:01;;;;;;;15.93;8.23;;;;;;;40.90;35.03;101253.88;5052571;28;20421;-89
2023/05/21 09:46:40;;;;;;;19.67;6.27;;;;;;;40.94;34.91;101263.03;5046364;28;20429;-91
2023/05/21 09:49:27;;;;;;;15.83;6.40;;;;;;;40.87;35.31;101274.34;5040069;28;20422;-92
2023/05/21 09:51:58;;;;;;;17.83;8.90;;;;;;;40.73;35.36;101257.38;5018875;28;20519;-90
2023/05/21 09:54:29;;;;;;;21.73;6.97;;;;;;;40.76;35.02;101240.41;5034226;28;20422;-90
2023/05/21 09:56:55;;;;;;;19.03;9.97;;;;;;;41.08;34.97;101280.03;5037287;28;20502;-89
2023/05/21 09:59:22;;;;;;;9.20;6.00;;;;;;;41.09;35.10;101276.19;5033944;28;20523;-89
2023/05/21 10:01:51;;;;;;;11.47;7.30;;;;;;;40.94;35.19;101252.13;5033241;28;20427;-88
2023/05/21 10:04:18;;;;;;;15.97;7.40;;;;;;;41.06;34.92;101264.00;5032694;28;20518;-90
2023/05/21 10:06:46;;;;;;;14.20;6.57;;;;;;;41.10;34.79;101256.00;5045802;28;20611;-88
2023/05/21 10:09:14;;;;;;;16.60;6.43;;;;;;;41.25;35.13;101271.88;5040107;28;20806;-89
2023/05/21 10:11:43;;;;;;;10.30;6.37;;;;;;;41.35;35.18;101270.78;5050893;28;20422;-88
2023/05/21 10:14:18;;;;;;;12.90;5.93;;;;;;;41.31;34.80;101272.50;5051587;28;20974;-88
2023/05/21 10:16:46;;;;;;;18.60;5.40;;;;;;;41.42;34.88;101271.09;5049736;28;20459;-89
2023/05/21 10:19:14;;;;;;;17.60;6.00;;;;;;;41.43;34.86;101269.97;5050790;28;20419;-92
2023/05/21 10:21:40;;;;;;;17.87;6.63;;;;;;;41.50;34.73;101274.97;5048483;28;20798;-88
2023/05/21 10:24:08;;;;;;;22.03;4.80;;;;;;;41.56;34.85;101281.84;5050200;28;20419;-89
2023/05/21 10:26:37;;;;;;;9.03;4.43;;;;;;;41.58;34.64;101265.97;5047602;28;20429;-88
2023/05/21 10:29:03;;;;;;;14.10;6.37;;;;;;;41.60;34.98;101269.16;5035650;28;20438;-90
2023/05/21 10:31:29;;;;;;;10.63;5.33;;;;;;;41.64;34.61;101259.22;5039195;28;20418;-89
2023/05/21 10:33:55;;;;;;;22.97;7.10;;;;;;;41.63;34.47;101254.91;5035145;28;20939;-89
2023/05/21 10:36:40;;;;;;;14.27;6.43;;;;;;;41.45;34.53;101237.78;5047366;28;20559;-90
2023/05/21 10:39:08;;;;;;;13.27;5.27;;;;;;;41.48;34.69;101228.97;5034745;28;20440;-89
2023/05/21 10:41:45;;;;;;;17.73;6.63;;;;;;;41.71;34.44;101247.84;5036584;28;20554;-91
2023/05/21 10:44:25;;;;;;;15.60;7.03;;;;;;;41.65;34.68;101244.47;5036159;28;20431;-88
2023/05/21 10:47:21;;;;;;;21.53;8.90;;;;;;;41.67;34.65;101247.69;5038357;28;20491;-90
2023/05/21 10:50:19;;;;;;;11.70;4.03;;;;;;;41.65;34.88;101247.22;5051042;28;20418;-89
2023/05/21 10:52:57;;;;;;;10.33;5.07;;;;;;;41.63;34.67;101246.75;5051479;28;20422;-90
2023/05/21 10:55:39;;;;;;;15.57;6.80;;;;;;;41.64;34.91;101237.44;5053214;28;20422;-90
2023/05/21 10:58:23;;;;;;;14.07;5.73;;;;;;;41.67;34.84;101241.44;5041542;28;20422;-89
2023/05/21 11:00:51;;;;;;;10.90;4.50;;;;;;;41.66;34.65;101232.47;5051320;28;20419;-89
2023/05/21 11:03:18;;;;;;;9.77;4.20;;;;;;;41.60;34.84;101231.03;5051271;28;20419;-89
2023/05/21 11:05:52;;;;;;;12.30;4.27;;;;;;;41.56;35.37;101228.19;5050948;28;20977;-89
2023/05/21 11:08:36;;;;;;;17.50;4.30;;;;;;;41.61;35.19;101224.47;5037847;28;20486;-87
2023/05/21 11:11:02;;;;;;;8.53;3.80;;;;;;;41.64;35.17;101206.69;5052295;28;20441;-89
2023/05/21 11:13:47;;;;;;;14.03;5.30;;;;;;;41.67;35.29;101201.38;5051048;28;20454;-89
2023/05/21 11:16:17;;;;;;;12.43;5.60;;;;;;;41.70;35.13;101195.28;5050818;28;20513;-88
2023/05/21 11:18:46;;;;;;;14.30;4.57;;;;;;;41.72;35.16;101195.75;5050930;28;20422;-89
2023/05/21 11:21:17;;;;;;;8.93;3.37;;;;;;;41.68;35.29;101199.44;5050861;28;20795;-88